sensor_id;sensor_type;location;lat;lon;timestamp;pressure;altitude;pressure_sealevel;temperature;humidity
64683;BME280;51107;47.652;19.016;2022-10-31T00:01:35;100574.84;;;11.57;100.00
64683;BME280;51107;47.652;19.016;2022-10-31T00:04:04;100574.00;;;11.56;100.00
64683;BME280;51107;47.652;19.016;2022-10-31T00:06:33;100561.66;;;11.49;100.00
64683;BME280;51107;47.652;19.016;2022-10-31T00:09:03;100569.34;;;11.50;100.00
64683;BME280;51107;47.652;19.016;2022-10-31T00:11:32;100570.72;;;11.45;100.00
64683;BME280;51107;47.652;19.016;2022-10-31T00:14:00;100563.44;;;11.38;100.00
64683;BME280;51107;47.652;19.016;2022-10-31T00:16:29;100569.34;;;11.41;100.00
64683;BME280;51107;47.652;19.016;2022-10-31T00:19:00;100567.84;;;11.28;100.00
64683;BME280;51107;47.652;19.016;2022-10-31T00:21:30;100570.16;;;11.21;100.00
64683;BME280;51107;47.652;19.016;2022-10-31T00:23:59;100569.59;;;11.28;100.00
64683;BME280;51107;47.652;19.016;2022-10-31T00:26:28;100571.41;;;11.27;100.00
64683;BME280;51107;47.652;19.016;2022-10-31T00:28:59;100567.00;;;11.28;100.00
64683;BME280;51107;47.652;19.016;2022-10-31T00:31:28;100563.97;;;11.22;100.00
64683;BME280;51107;47.652;19.016;2022-10-31T00:33:57;100563.56;;;11.17;100.00
64683;BME280;51107;47.652;19.016;2022-10-31T00:36:27;100568.63;;;11.19;100.00
64683;BME280;51107;47.652;19.016;2022-10-31T00:38:55;100570.69;;;11.15;100.00
64683;BME280;51107;47.652;19.016;2022-10-31T00:41:25;100567.25;;;11.05;100.00
64683;BME280;51107;47.652;19.016;2022-10-31T00:43:54;100561.31;;;11.03;100.00
64683;BME280;51107;47.652;19.016;2022-10-31T00:46:22;100565.31;;;11.07;100.00
64683;BME280;51107;47.652;19.016;2022-10-31T00:48:50;100563.78;;;11.04;100.00
64683;BME280;51107;47.652;19.016;2022-10-31T00:51:19;100568.19;;;11.04;100.00
64683;BME280;51107;47.652;19.016;2022-10-31T00:53:47;100563.94;;;11.03;100.00
64683;BME280;51107;47.652;19.016;2022-10-31T00:56:15;100566.81;;;11.00;100.00
64683;BME280;51107;47.652;19.016;2022-10-31T00:58:43;100562.16;;;11.03;100.00
64683;BME280;51107;47.652;19.016;2022-10-31T01:01:12;100558.06;;;11.11;100.00
64683;BME280;51107;47.652;19.016;2022-10-31T01:03:40;100552.41;;;11.05;100.00
64683;BME280;51107;47.652;19.016;2022-10-31T01:06:12;100555.72;;;11.08;100.00
64683;BME280;51107;47.652;19.016;2022-10-31T01:08:41;100550.09;;;11.12;100.00
64683;BME280;51107;47.652;19.016;2022-10-31T01:11:20;100548.56;;;11.10;100.00
64683;BME280;51107;47.652;19.016;2022-10-31T01:13:51;100548.72;;;11.08;100.00
64683;BME280;51107;47.652;19.016;2022-10-31T01:16:23;100545.00;;;11.11;100.00
64683;BME280;51107;47.652;19.016;2022-10-31T01:18:52;100539.78;;;11.01;100.00
64683;BME280;51107;47.652;19.016;2022-10-31T01:21:22;100549.13;;;11.03;100.00
64683;BME280;51107;47.652;19.016;2022-10-31T01:23:55;100541.28;;;10.94;100.00
64683;BME280;51107;47.652;19.016;2022-10-31T01:26:28;100542.91;;;10.95;100.00
64683;BME280;51107;47.652;19.016;2022-10-31T01:29:05;100542.09;;;10.94;100.00
64683;BME280;51107;47.652;19.016;2022-10-31T01:31:37;100546.88;;;10.89;100.00
64683;BME280;51107;47.652;19.016;2022-10-31T01:34:06;100541.38;;;10.82;100.00
64683;BME280;51107;47.652;19.016;2022-10-31T01:36:37;100542.59;;;10.78;100.00
64683;BME280;51107;47.652;19.016;2022-10-31T01:39:11;100540.56;;;10.82;100.00
64683;BME280;51107;47.652;19.016;2022-10-31T01:41:42;100536.47;;;10.89;100.00
64683;BME280;51107;47.652;19.016;2022-10-31T01:47:05;100536.31;;;10.91;100.00
64683;BME280;51107;47.652;19.016;2022-10-31T01:49:42;100542.34;;;10.81;100.00
64683;BME280;51107;47.652;19.016;2022-10-31T01:52:25;100533.72;;;10.91;100.00
64683;BME280;51107;47.652;19.016;2022-10-31T01:55:01;100536.56;;;10.78;100.00
64683;BME280;51107;47.652;19.016;2022-10-31T01:57:32;100533.97;;;10.78;100.00
64683;BME280;51107;47.652;19.016;2022-10-31T02:00:06;100537.12;;;10.81;100.00
64683;BME280;51107;47.652;19.016;2022-10-31T02:02:40;100528.03;;;10.76;100.00
64683;BME280;51107;47.652;19.016;2022-10-31T02:05:13;100530.72;;;10.85;100.00
64683;BME280;51107;47.652;19.016;2022-10-31T02:07:53;100533.19;;;10.87;100.00
64683;BME280;51107;47.652;19.016;2022-10-31T02:10:29;100528.25;;;10.94;100.00
64683;BME280;51107;47.652;19.016;2022-10-31T02:13:05;100525.06;;;10.80;100.00
64683;BME280;51107;47.652;19.016;2022-10-31T02:15:37;100529.84;;;10.75;100.00
64683;BME280;51107;47.652;19.016;2022-10-31T02:18:06;100529.44;;;10.80;100.00
64683;BME280;51107;47.652;19.016;2022-10-31T02:30:00;100533.22;;;10.66;100.00
64683;BME280;51107;47.652;19.016;2022-10-31T02:35:38;100518.97;;;10.60;100.00
64683;BME280;51107;47.652;19.016;2022-10-31T02:38:29;100530.59;;;10.56;100.00
64683;BME280;51107;47.652;19.016;2022-10-31T02:43:37;100521.25;;;10.53;100.00
64683;BME280;51107;47.652;19.016;2022-10-31T02:49:03;100527.19;;;10.56;100.00
64683;BME280;51107;47.652;19.016;2022-10-31T02:51:35;100526.44;;;10.44;100.00
64683;BME280;51107;47.652;19.016;2022-10-31T02:54:04;100535.72;;;10.36;100.00
64683;BME280;51107;47.652;19.016;2022-10-31T02:56:32;100540.12;;;10.36;100.00
64683;BME280;51107;47.652;19.016;2022-10-31T02:59:01;100531.91;;;10.41;100.00
64683;BME280;51107;47.652;19.016;2022-10-31T03:01:46;100540.31;;;10.44;100.00
64683;BME280;51107;47.652;19.016;2022-10-31T03:12:37;100547.75;;;10.59;100.00
64683;BME280;51107;47.652;19.016;2022-10-31T03:15:19;100554.44;;;10.51;100.00
64683;BME280;51107;47.652;19.016;2022-10-31T03:18:08;100548.56;;;10.59;100.00
64683;BME280;51107;47.652;19.016;2022-10-31T03:20:44;100556.28;;;10.61;100.00
64683;BME280;51107;47.652;19.016;2022-10-31T03:23:16;100566.16;;;10.67;100.00
64683;BME280;51107;47.652;19.016;2022-10-31T03:25:48;100556.84;;;10.74;100.00
64683;BME280;51107;47.652;19.016;2022-10-31T03:28:18;100562.78;;;10.76;100.00
64683;BME280;51107;47.652;19.016;2022-10-31T03:30:51;100563.88;;;10.83;100.00
64683;BME280;51107;47.652;19.016;2022-10-31T03:33:24;100562.22;;;10.82;100.00
64683;BME280;51107;47.652;19.016;2022-10-31T03:35:57;100561.84;;;10.87;100.00
64683;BME280;51107;47.652;19.016;2022-10-31T03:38:29;100567.06;;;10.87;100.00
64683;BME280;51107;47.652;19.016;2022-10-31T03:41:03;100562.63;;;10.78;100.00
64683;BME280;51107;47.652;19.016;2022-10-31T03:43:38;100568.00;;;10.86;100.00
64683;BME280;51107;47.652;19.016;2022-10-31T03:46:08;100559.63;;;10.92;100.00
64683;BME280;51107;47.652;19.016;2022-10-31T03:48:37;100564.28;;;10.79;100.00
64683;BME280;51107;47.652;19.016;2022-10-31T03:51:32;100559.63;;;10.82;100.00
64683;BME280;51107;47.652;19.016;2022-10-31T03:54:25;100557.72;;;10.84;100.00
64683;BME280;51107;47.652;19.016;2022-10-31T03:57:00;100569.47;;;10.69;100.00
64683;BME280;51107;47.652;19.016;2022-10-31T03:59:32;100565.66;;;10.73;100.00
64683;BME280;51107;47.652;19.016;2022-10-31T04:02:06;100572.66;;;10.82;100.00
64683;BME280;51107;47.652;19.016;2022-10-31T04:04:38;100565.53;;;10.84;100.00
64683;BME280;51107;47.652;19.016;2022-10-31T04:07:07;100568.78;;;10.77;100.00
64683;BME280;51107;47.652;19.016;2022-10-31T04:09:38;100560.16;;;10.76;100.00
64683;BME280;51107;47.652;19.016;2022-10-31T04:12:11;100568.78;;;10.77;100.00
64683;BME280;51107;47.652;19.016;2022-10-31T04:14:47;100567.69;;;10.69;100.00
64683;BME280;51107;47.652;19.016;2022-10-31T04:17:19;100568.50;;;10.70;100.00
64683;BME280;51107;47.652;19.016;2022-10-31T04:19:50;100567.25;;;10.64;100.00
64683;BME280;51107;47.652;19.016;2022-10-31T04:22:20;100568.94;;;10.75;100.00
64683;BME280;51107;47.652;19.016;2022-10-31T04:24:49;100567.41;;;10.73;100.00
64683;BME280;51107;47.652;19.016;2022-10-31T04:27:17;100557.22;;;10.60;100.00
64683;BME280;51107;47.652;19.016;2022-10-31T04:29:46;100559.44;;;10.64;100.00
64683;BME280;51107;47.652;19.016;2022-10-31T04:32:18;100560.78;;;10.59;100.00
64683;BME280;51107;47.652;19.016;2022-10-31T04:34:46;100569.00;;;10.54;100.00
64683;BME280;51107;47.652;19.016;2022-10-31T04:37:14;100561.34;;;10.62;100.00
64683;BME280;51107;47.652;19.016;2022-10-31T04:39:42;100558.87;;;10.61;100.00
64683;BME280;51107;47.652;19.016;2022-10-31T04:42:12;100578.88;;;10.60;100.00
64683;BME280;51107;47.652;19.016;2022-10-31T04:44:41;100582.97;;;10.53;100.00
64683;BME280;51107;47.652;19.016;2022-10-31T04:47:09;100585.72;;;10.51;100.00
64683;BME280;51107;47.652;19.016;2022-10-31T04:49:37;100575.69;;;10.47;100.00
64683;BME280;51107;47.652;19.016;2022-10-31T04:52:06;100585.44;;;10.54;100.00
64683;BME280;51107;47.652;19.016;2022-10-31T04:54:36;100580.38;;;10.53;100.00
64683;BME280;51107;47.652;19.016;2022-10-31T04:57:06;100589.00;;;10.53;100.00
64683;BME280;51107;47.652;19.016;2022-10-31T04:59:35;100585.44;;;10.54;100.00
64683;BME280;51107;47.652;19.016;2022-10-31T05:02:03;100576.00;;;10.63;100.00
64683;BME280;51107;47.652;19.016;2022-10-31T05:04:33;100570.69;;;10.65;100.00
64683;BME280;51107;47.652;19.016;2022-10-31T05:07:02;100583.31;;;10.69;100.00
64683;BME280;51107;47.652;19.016;2022-10-31T05:09:31;100568.59;;;10.59;100.00
64683;BME280;51107;47.652;19.016;2022-10-31T05:11:59;100579.31;;;10.65;100.00
64683;BME280;51107;47.652;19.016;2022-10-31T05:14:28;100576.72;;;10.65;100.00
64683;BME280;51107;47.652;19.016;2022-10-31T05:16:56;100588.78;;;10.66;100.00
64683;BME280;51107;47.652;19.016;2022-10-31T05:19:26;100591.41;;;10.66;100.00
64683;BME280;51107;47.652;19.016;2022-10-31T05:21:56;100604.75;;;10.73;100.00
64683;BME280;51107;47.652;19.016;2022-10-31T05:24:24;100598.12;;;10.69;100.00
64683;BME280;51107;47.652;19.016;2022-10-31T05:26:52;100610.75;;;10.74;100.00
64683;BME280;51107;47.652;19.016;2022-10-31T05:29:21;100597.16;;;10.70;100.00
64683;BME280;51107;47.652;19.016;2022-10-31T05:31:49;100600.44;;;10.62;100.00
64683;BME280;51107;47.652;19.016;2022-10-31T05:34:19;100600.84;;;10.67;100.00
64683;BME280;51107;47.652;19.016;2022-10-31T05:36:49;100603.09;;;10.72;100.00
64683;BME280;51107;47.652;19.016;2022-10-31T05:39:18;100588.97;;;10.75;100.00
64683;BME280;51107;47.652;19.016;2022-10-31T05:41:46;100586.37;;;10.75;100.00
64683;BME280;51107;47.652;19.016;2022-10-31T05:44:15;100588.28;;;10.82;100.00
64683;BME280;51107;47.652;19.016;2022-10-31T05:46:46;100608.44;;;10.70;100.00
64683;BME280;51107;47.652;19.016;2022-10-31T05:49:15;100583.75;;;10.75;100.00
64683;BME280;51107;47.652;19.016;2022-10-31T05:51:46;100589.22;;;10.71;100.00
64683;BME280;51107;47.652;19.016;2022-10-31T05:54:14;100585.00;;;10.80;100.00
64683;BME280;51107;47.652;19.016;2022-10-31T05:56:44;100591.44;;;10.76;100.00
64683;BME280;51107;47.652;19.016;2022-10-31T05:59:12;100590.50;;;10.77;100.00
64683;BME280;51107;47.652;19.016;2022-10-31T06:01:41;100602.84;;;10.85;100.00
64683;BME280;51107;47.652;19.016;2022-10-31T06:04:11;100584.09;;;10.91;100.00
64683;BME280;51107;47.652;19.016;2022-10-31T06:06:39;100597.94;;;10.92;100.00
64683;BME280;51107;47.652;19.016;2022-10-31T06:09:07;100601.75;;;10.87;100.00
64683;BME280;51107;47.652;19.016;2022-10-31T06:11:36;100593.44;;;10.94;100.00
64683;BME280;51107;47.652;19.016;2022-10-31T06:14:09;100604.81;;;10.93;100.00
64683;BME280;51107;47.652;19.016;2022-10-31T06:16:39;100605.63;;;10.93;100.00
64683;BME280;51107;47.652;19.016;2022-10-31T06:19:09;100599.31;;;10.96;100.00
64683;BME280;51107;47.652;19.016;2022-10-31T06:21:37;100615.66;;;10.98;100.00
64683;BME280;51107;47.652;19.016;2022-10-31T06:24:06;100618.09;;;10.90;100.00
64683;BME280;51107;47.652;19.016;2022-10-31T06:26:37;100623.72;;;10.95;100.00
64683;BME280;51107;47.652;19.016;2022-10-31T06:29:05;100631.41;;;10.96;100.00
64683;BME280;51107;47.652;19.016;2022-10-31T06:31:35;100637.59;;;10.95;100.00
64683;BME280;51107;47.652;19.016;2022-10-31T06:34:04;100622.28;;;11.02;100.00
64683;BME280;51107;47.652;19.016;2022-10-31T06:36:32;100630.34;;;11.09;100.00
64683;BME280;51107;47.652;19.016;2022-10-31T06:39:01;100632.28;;;11.07;100.00
64683;BME280;51107;47.652;19.016;2022-10-31T06:41:31;100621.28;;;11.03;100.00
64683;BME280;51107;47.652;19.016;2022-10-31T06:44:00;100628.16;;;11.04;100.00
64683;BME280;51107;47.652;19.016;2022-10-31T06:46:35;100617.22;;;11.10;100.00
64683;BME280;51107;47.652;19.016;2022-10-31T06:49:06;100622.84;;;11.15;100.00
64683;BME280;51107;47.652;19.016;2022-10-31T06:51:34;100617.63;;;11.15;100.00
64683;BME280;51107;47.652;19.016;2022-10-31T06:54:02;100633.41;;;11.14;100.00
64683;BME280;51107;47.652;19.016;2022-10-31T06:56:31;100632.59;;;11.13;100.00
64683;BME280;51107;47.652;19.016;2022-10-31T06:59:00;100630.34;;;11.09;100.00
64683;BME280;51107;47.652;19.016;2022-10-31T07:01:30;100631.38;;;11.17;100.00
64683;BME280;51107;47.652;19.016;2022-10-31T07:04:00;100635.47;;;11.10;100.00
64683;BME280;51107;47.652;19.016;2022-10-31T07:06:31;100627.22;;;11.15;100.00
64683;BME280;51107;47.652;19.016;2022-10-31T07:08:59;100640.94;;;11.17;100.00
64683;BME280;51107;47.652;19.016;2022-10-31T07:11:27;100636.94;;;11.03;100.00
64683;BME280;51107;47.652;19.016;2022-10-31T07:13:56;100643.50;;;10.97;100.00
64683;BME280;51107;47.652;19.016;2022-10-31T07:16:25;100643.38;;;10.99;100.00
64683;BME280;51107;47.652;19.016;2022-10-31T07:18:53;100641.06;;;11.05;100.00
64683;BME280;51107;47.652;19.016;2022-10-31T07:21:22;100647.63;;;11.00;100.00
64683;BME280;51107;47.652;19.016;2022-10-31T07:23:50;100640.37;;;11.03;100.00
64683;BME280;51107;47.652;19.016;2022-10-31T07:26:21;100647.94;;;11.07;100.00
64683;BME280;51107;47.652;19.016;2022-10-31T07:28:50;100647.66;;;11.10;100.00
64683;BME280;51107;47.652;19.016;2022-10-31T07:31:18;100654.00;;;11.17;100.00
64683;BME280;51107;47.652;19.016;2022-10-31T07:33:46;100653.19;;;11.16;100.00
64683;BME280;51107;47.652;19.016;2022-10-31T07:36:16;100657.97;;;11.21;100.00
64683;BME280;51107;47.652;19.016;2022-10-31T07:38:44;100654.41;;;11.22;100.00
64683;BME280;51107;47.652;19.016;2022-10-31T07:41:13;100661.47;;;11.31;100.00
64683;BME280;51107;47.652;19.016;2022-10-31T07:43:42;100647.16;;;11.26;100.00
64683;BME280;51107;47.652;19.016;2022-10-31T07:46:12;100661.97;;;11.25;100.00
64683;BME280;51107;47.652;19.016;2022-10-31T07:48:42;100668.56;;;11.29;100.00
64683;BME280;51107;47.652;19.016;2022-10-31T07:51:11;100660.22;;;11.26;100.00
64683;BME280;51107;47.652;19.016;2022-10-31T07:53:43;100657.84;;;11.22;100.00
64683;BME280;51107;47.652;19.016;2022-10-31T07:56:12;100653.34;;;11.25;100.00
64683;BME280;51107;47.652;19.016;2022-10-31T07:58:41;100660.37;;;11.34;100.00
64683;BME280;51107;47.652;19.016;2022-10-31T08:01:09;100664.75;;;11.33;100.00
64683;BME280;51107;47.652;19.016;2022-10-31T08:03:38;100660.37;;;11.34;100.00
64683;BME280;51107;47.652;19.016;2022-10-31T08:06:08;100657.34;;;11.29;100.00
64683;BME280;51107;47.652;19.016;2022-10-31T08:08:42;100661.00;;;11.16;100.00
64683;BME280;51107;47.652;19.016;2022-10-31T08:11:11;100660.22;;;11.26;100.00
64683;BME280;51107;47.652;19.016;2022-10-31T08:13:40;100662.69;;;11.27;100.00
64683;BME280;51107;47.652;19.016;2022-10-31T08:16:09;100665.28;;;11.27;100.00
64683;BME280;51107;47.652;19.016;2022-10-31T08:18:39;100664.19;;;11.30;100.00
64683;BME280;51107;47.652;19.016;2022-10-31T08:21:08;100661.44;;;11.21;100.00
64683;BME280;51107;47.652;19.016;2022-10-31T08:23:40;100662.25;;;11.22;100.00
64683;BME280;51107;47.652;19.016;2022-10-31T08:26:08;100661.13;;;11.15;100.00
64683;BME280;51107;47.652;19.016;2022-10-31T08:28:37;100662.25;;;11.22;100.00
64683;BME280;51107;47.652;19.016;2022-10-31T08:31:05;100661.97;;;11.25;100.00
64683;BME280;51107;47.652;19.016;2022-10-31T08:33:38;100663.22;;;11.31;100.00
64683;BME280;51107;47.652;19.016;2022-10-31T08:36:10;100663.50;;;11.28;100.00
64683;BME280;51107;47.652;19.016;2022-10-31T08:38:40;100666.97;;;11.38;100.00
64683;BME280;51107;47.652;19.016;2022-10-31T08:41:08;100672.88;;;11.40;100.00
64683;BME280;51107;47.652;19.016;2022-10-31T08:43:37;100668.06;;;11.35;100.00
64683;BME280;51107;47.652;19.016;2022-10-31T08:46:06;100669.28;;;11.31;100.00
64683;BME280;51107;47.652;19.016;2022-10-31T08:48:34;100663.13;;;11.42;100.00
64683;BME280;51107;47.652;19.016;2022-10-31T08:51:02;100669.97;;;11.43;100.00
64683;BME280;51107;47.652;19.016;2022-10-31T08:53:31;100669.03;;;11.44;100.00
64683;BME280;51107;47.652;19.016;2022-10-31T08:56:00;100667.81;;;11.48;100.00
64683;BME280;51107;47.652;19.016;2022-10-31T08:58:32;100662.31;;;11.51;100.00
64683;BME280;51107;47.652;19.016;2022-10-31T09:01:07;100665.91;;;11.50;100.00
64683;BME280;51107;47.652;19.016;2022-10-31T09:03:36;100672.75;;;11.51;100.00
64683;BME280;51107;47.652;19.016;2022-10-31T09:06:05;100677.13;;;11.41;100.00
64683;BME280;51107;47.652;19.016;2022-10-31T09:08:38;100670.81;;;11.44;100.00
64683;BME280;51107;47.652;19.016;2022-10-31T09:11:06;100673.12;;;11.37;100.00
64683;BME280;51107;47.652;19.016;2022-10-31T09:13:37;100678.66;;;11.44;100.00
64683;BME280;51107;47.652;19.016;2022-10-31T09:16:09;100673.81;;;11.39;100.00
64683;BME280;51107;47.652;19.016;2022-10-31T09:18:38;100671.37;;;11.47;100.00
64683;BME280;51107;47.652;19.016;2022-10-31T09:21:07;100677.66;;;11.35;100.00
64683;BME280;51107;47.652;19.016;2022-10-31T09:23:35;100679.75;;;11.41;100.00
64683;BME280;51107;47.652;19.016;2022-10-31T09:26:04;100678.63;;;11.34;100.00
64683;BME280;51107;47.652;19.016;2022-10-31T09:28:32;100686.62;;;11.42;100.00
64683;BME280;51107;47.652;19.016;2022-10-31T09:31:01;100686.19;;;11.47;100.00
64683;BME280;51107;47.652;19.016;2022-10-31T09:33:31;100685.38;;;11.46;100.00
64683;BME280;51107;47.652;19.016;2022-10-31T09:36:01;100680.72;;;11.50;100.00
64683;BME280;51107;47.652;19.016;2022-10-31T09:38:30;100689.38;;;11.50;100.00
64683;BME280;51107;47.652;19.016;2022-10-31T09:41:40;100679.91;;;11.49;100.00
64683;BME280;51107;47.652;19.016;2022-10-31T09:50:25;100693.63;;;11.51;100.00
64683;BME280;51107;47.652;19.016;2022-10-31T09:53:04;100688.41;;;11.51;100.00
64683;BME280;51107;47.652;19.016;2022-10-31T09:55:47;100691.13;;;11.40;100.00
64683;BME280;51107;47.652;19.016;2022-10-31T09:58:28;100684.25;;;11.39;100.00
64683;BME280;51107;47.652;19.016;2022-10-31T10:01:03;100682.78;;;11.46;100.00
64683;BME280;51107;47.652;19.016;2022-10-31T10:03:38;100676.34;;;11.50;100.00
64683;BME280;51107;47.652;19.016;2022-10-31T10:06:21;100678.13;;;11.60;100.00
64683;BME280;51107;47.652;19.016;2022-10-31T10:08:54;100676.88;;;11.54;100.00
64683;BME280;51107;47.652;19.016;2022-10-31T10:11:40;100677.44;;;11.48;100.00
64683;BME280;51107;47.652;19.016;2022-10-31T10:19:30;100683.50;;;11.68;100.00
64683;BME280;51107;47.652;19.016;2022-10-31T10:22:22;100684.19;;;11.60;100.00
64683;BME280;51107;47.652;19.016;2022-10-31T10:25:09;100677.16;;;11.61;100.00
64683;BME280;51107;47.652;19.016;2022-10-31T10:33:18;100676.34;;;11.60;100.00
64683;BME280;51107;47.652;19.016;2022-10-31T10:36:23;100679.91;;;11.59;100.00
64683;BME280;51107;47.652;19.016;2022-10-31T10:38:59;100670.69;;;11.55;100.00
64683;BME280;51107;47.652;19.016;2022-10-31T10:41:32;100667.00;;;11.67;100.00
64683;BME280;51107;47.652;19.016;2022-10-31T10:44:07;100668.13;;;11.75;100.00
64683;BME280;51107;47.652;19.016;2022-10-31T10:46:55;100670.19;;;11.71;100.00
64683;BME280;51107;47.652;19.016;2022-10-31T10:49:52;100671.13;;;11.70;100.00
64683;BME280;51107;47.652;19.016;2022-10-31T10:52:29;100662.66;;;11.78;100.00
64683;BME280;51107;47.652;19.016;2022-10-31T10:57:56;100654.91;;;11.76;100.00
64683;BME280;51107;47.652;19.016;2022-10-31T11:00:34;100663.75;;;11.75;100.00
64683;BME280;51107;47.652;19.016;2022-10-31T11:03:04;100663.97;;;11.72;100.00
64683;BME280;51107;47.652;19.016;2022-10-31T11:05:57;100664.41;;;11.77;100.00
64683;BME280;51107;47.652;19.016;2022-10-31T11:08:36;100661.13;;;11.75;100.00
64683;BME280;51107;47.652;19.016;2022-10-31T11:11:33;100662.34;;;11.71;100.00
64683;BME280;51107;47.652;19.016;2022-10-31T11:14:14;100657.97;;;11.81;100.00
64683;BME280;51107;47.652;19.016;2022-10-31T11:16:45;100656.72;;;11.85;100.00
64683;BME280;51107;47.652;19.016;2022-10-31T11:19:21;100649.69;;;11.76;100.00
64683;BME280;51107;47.652;19.016;2022-10-31T11:21:50;100655.47;;;11.80;100.00
64683;BME280;51107;47.652;19.016;2022-10-31T11:24:23;100643.53;;;11.77;100.00
64683;BME280;51107;47.652;19.016;2022-10-31T11:27:13;100642.56;;;11.68;100.00
64683;BME280;51107;47.652;19.016;2022-10-31T11:29:42;100645.31;;;11.67;100.00
64683;BME280;51107;47.652;19.016;2022-10-31T11:32:24;100645.72;;;11.72;100.00
64683;BME280;51107;47.652;19.016;2022-10-31T11:34:57;100643.81;;;11.74;100.00
64683;BME280;51107;47.652;19.016;2022-10-31T11:37:32;100645.03;;;11.70;100.00
64683;BME280;51107;47.652;19.016;2022-10-31T11:40:05;100641.47;;;11.71;100.00
64683;BME280;51107;47.652;19.016;2022-10-31T11:42:42;100646.69;;;11.81;100.00
64683;BME280;51107;47.652;19.016;2022-10-31T11:45:27;100637.50;;;11.67;100.00
64683;BME280;51107;47.652;19.016;2022-10-31T11:48:16;100627.34;;;11.73;100.00
64683;BME280;51107;47.652;19.016;2022-10-31T11:50:55;100638.72;;;11.72;100.00
64683;BME280;51107;47.652;19.016;2022-10-31T11:53:28;100633.50;;;11.82;100.00
64683;BME280;51107;47.652;19.016;2022-10-31T11:56:14;100631.72;;;11.83;100.00
64683;BME280;51107;47.652;19.016;2022-10-31T11:58:42;100629.94;;;11.83;100.00
64683;BME280;51107;47.652;19.016;2022-10-31T12:01:28;100634.31;;;11.93;100.00
64683;BME280;51107;47.652;19.016;2022-10-31T12:04:04;100630.50;;;11.97;100.00
64683;BME280;51107;47.652;19.016;2022-10-31T12:06:36;100636.91;;;11.93;100.00
64683;BME280;51107;47.652;19.016;2022-10-31T12:09:28;100638.16;;;11.88;100.00
64683;BME280;51107;47.652;19.016;2022-10-31T12:12:25;100632.00;;;11.80;100.00
64683;BME280;51107;47.652;19.016;2022-10-31T12:15:16;100641.19;;;11.84;100.00
64683;BME280;51107;47.652;19.016;2022-10-31T12:20:55;100632.69;;;11.82;100.00
64683;BME280;51107;47.652;19.016;2022-10-31T12:32:29;100647.50;;;11.91;100.00
64683;BME280;51107;47.652;19.016;2022-10-31T12:35:20;100638.88;;;11.71;100.00
64683;BME280;51107;47.652;19.016;2022-10-31T12:40:35;100635.16;;;11.73;100.00
64683;BME280;51107;47.652;19.016;2022-10-31T12:46:31;100634.47;;;11.81;100.00
64683;BME280;51107;47.652;19.016;2022-10-31T12:57:40;100623.75;;;11.94;100.00
64683;BME280;51107;47.652;19.016;2022-10-31T13:05:40;100617.28;;;11.88;100.00
64683;BME280;51107;47.652;19.016;2022-10-31T13:08:16;100621.69;;;11.88;100.00
64683;BME280;51107;47.652;19.016;2022-10-31T13:10:55;100618.25;;;11.87;100.00
64683;BME280;51107;47.652;19.016;2022-10-31T13:13:35;100621.81;;;11.86;100.00
64683;BME280;51107;47.652;19.016;2022-10-31T13:16:16;100625.38;;;11.85;100.00
64683;BME280;51107;47.652;19.016;2022-10-31T13:19:16;100615.38;;;11.81;100.00
64683;BME280;51107;47.652;19.016;2022-10-31T13:21:57;100622.09;;;11.83;100.00
64683;BME280;51107;47.652;19.016;2022-10-31T13:24:39;100617.28;;;11.79;100.00
64683;BME280;51107;47.652;19.016;2022-10-31T13:27:44;100616.59;;;11.86;100.00
64683;BME280;51107;47.652;19.016;2022-10-31T13:30:16;100615.66;;;11.78;100.00
64683;BME280;51107;47.652;19.016;2022-10-31T13:38:33;100615.78;;;11.86;100.00
64683;BME280;51107;47.652;19.016;2022-10-31T13:48:59;100615.38;;;11.90;100.00
64683;BME280;51107;47.652;19.016;2022-10-31T13:51:34;100615.38;;;11.90;100.00
64683;BME280;51107;47.652;19.016;2022-10-31T13:54:20;100603.97;;;11.92;100.00
64683;BME280;51107;47.652;19.016;2022-10-31T13:56:52;100615.78;;;11.86;100.00
64683;BME280;51107;47.652;19.016;2022-10-31T13:59:22;100615.66;;;11.78;100.00
64683;BME280;51107;47.652;19.016;2022-10-31T14:04:28;100617.28;;;11.69;100.00
64683;BME280;51107;47.652;19.016;2022-10-31T14:07:11;100616.47;;;11.68;100.00
64683;BME280;51107;47.652;19.016;2022-10-31T14:10:01;100612.75;;;11.71;100.00
64683;BME280;51107;47.652;19.016;2022-10-31T14:12:47;100614.81;;;11.67;100.00
64683;BME280;51107;47.652;19.016;2022-10-31T14:15:26;100618.38;;;11.66;100.00
64683;BME280;51107;47.652;19.016;2022-10-31T14:18:06;100615.25;;;11.63;100.00
64683;BME280;51107;47.652;19.016;2022-10-31T14:20:40;100615.91;;;11.65;100.00
64683;BME280;51107;47.652;19.016;2022-10-31T14:28:52;100610.16;;;11.61;100.00
64683;BME280;51107;47.652;19.016;2022-10-31T14:34:07;100617.84;;;11.63;100.00
64683;BME280;51107;47.652;19.016;2022-10-31T14:40:29;100607.41;;;11.63;100.00
64683;BME280;51107;47.652;19.016;2022-10-31T14:43:29;100609.03;;;11.64;100.00
64683;BME280;51107;47.652;19.016;2022-10-31T14:46:11;100606.56;;;11.62;100.00
64683;BME280;51107;47.652;19.016;2022-10-31T14:51:33;100611.91;;;11.70;100.00
64683;BME280;51107;47.652;19.016;2022-10-31T14:54:05;100611.25;;;11.68;100.00